Time;durP1;ratioP1;P1;durP2;ratioP2;P2;SDS_P1;SDS_P2;PMS_P1;PMS_P2;Temp;Humidity;BMP_temperature;BMP_pressure;BME280_temperature;BME280_humidity;BME280_pressure;Samples;Min_cycle;Max_cycle;Signal;HPM_P1;HPM_P2
2022/07/08 00:01:01;;;;;;;8.98;2.20;;;14.60;99.90;;;;;;5044080;28;20093;-64
2022/07/08 00:03:27;;;;;;;9.07;1.50;;;14.50;99.90;;;;;;5060429;28;20033;-65
2022/07/08 00:05:53;;;;;;;9.98;1.92;;;14.60;99.90;;;;;;5012876;28;20033;-64
2022/07/08 00:08:20;;;;;;;7.20;1.33;;;;;;;;;;5043723;28;20049;-64
2022/07/08 00:10:45;;;;;;;11.23;2.45;;;14.50;99.90;;;;;;5055761;28;20120;-63
2022/07/08 00:13:11;;;;;;;7.13;1.50;;;14.50;99.90;;;;;;5024916;28;20241;-62
2022/07/08 00:15:37;;;;;;;7.47;1.52;;;14.50;99.90;;;;;;5012237;28;20033;-62
2022/07/08 00:18:02;;;;;;;7.45;1.42;;;14.50;99.90;;;;;;5031474;28;20042;-63
2022/07/08 00:20:28;;;;;;;7.47;1.92;;;14.50;99.90;;;;;;5020893;28;20473;-63
2022/07/08 00:22:54;;;;;;;11.52;1.80;;;;;;;;;;5025849;28;20036;-63
2022/07/08 00:25:20;;;;;;;9.57;1.60;;;14.50;99.90;;;;;;4995779;28;20042;-62
2022/07/08 00:27:45;;;;;;;5.43;1.60;;;14.40;99.90;;;;;;5028370;28;20030;-63
2022/07/08 00:30:12;;;;;;;12.38;1.88;;;14.40;99.90;;;;;;4995543;28;20041;-63
2022/07/08 00:32:38;;;;;;;10.02;1.50;;;14.50;99.90;;;;;;5024973;28;20048;-63
2022/07/08 00:35:05;;;;;;;6.28;1.80;;;14.50;99.90;;;;;;5018963;28;20396;-63
2022/07/08 00:37:31;;;;;;;10.52;1.50;;;14.40;99.90;;;;;;5019985;28;20056;-63
2022/07/08 00:39:57;;;;;;;6.88;2.08;;;;;;;;;;5026719;28;20050;-63
2022/07/08 00:42:23;;;;;;;10.85;1.65;;;;;;;;;;5022459;28;20045;-63
2022/07/08 00:44:48;;;;;;;4.57;1.85;;;14.50;99.90;;;;;;5017347;28;20076;-63
2022/07/08 00:47:14;;;;;;;7.28;1.83;;;14.50;99.90;;;;;;5013213;28;20041;-62
2022/07/08 00:49:40;;;;;;;9.38;1.98;;;14.50;99.90;;;;;;5012599;28;20046;-64
2022/07/08 00:52:07;;;;;;;10.38;1.65;;;14.50;99.90;;;;;;5012701;28;20396;-63
2022/07/08 00:54:33;;;;;;;6.63;1.60;;;;;;;;;;5020509;28;20054;-62
2022/07/08 00:56:59;;;;;;;11.68;1.77;;;14.50;99.90;;;;;;5017541;28;20042;-62
2022/07/08 00:59:25;;;;;;;9.80;2.00;;;14.30;99.90;;;;;;5018216;28;20052;-63
2022/07/08 01:01:51;;;;;;;14.77;1.92;;;14.20;99.90;;;;;;5000832;28;20038;-63
2022/07/08 01:04:17;;;;;;;8.52;1.80;;;14.40;99.90;;;;;;5025018;28;20045;-62
2022/07/08 01:06:43;;;;;;;7.30;1.80;;;14.40;99.90;;;;;;5011528;28;20104;-62
2022/07/08 01:09:09;;;;;;;8.40;2.15;;;14.50;99.90;;;;;;5025399;28;20372;-62
2022/07/08 01:11:36;;;;;;;5.22;1.95;;;14.40;99.90;;;;;;5011221;28;20054;-63
2022/07/08 01:14:03;;;;;;;10.00;1.77;;;14.50;99.90;;;;;;5010800;28;20087;-63
2022/07/08 01:16:29;;;;;;;7.50;1.85;;;14.40;99.90;;;;;;5011281;28;20563;-63
2022/07/08 01:18:54;;;;;;;13.50;1.50;;;14.40;99.90;;;;;;5010142;28;20130;-63
2022/07/08 01:21:20;;;;;;;9.18;2.63;;;14.30;99.90;;;;;;5011157;28;20041;-63
2022/07/08 01:23:46;;;;;;;11.40;2.33;;;14.30;99.90;;;;;;5016027;28;20117;-62
2022/07/08 01:26:12;;;;;;;8.90;1.83;;;14.40;99.90;;;;;;4998917;28;20415;-63
2022/07/08 01:28:39;;;;;;;6.85;1.60;;;14.20;99.90;;;;;;5007648;28;20104;-64
2022/07/08 01:31:05;;;;;;;9.98;1.80;;;14.30;99.90;;;;;;5020080;28;20114;-65
2022/07/08 01:33:31;;;;;;;9.25;1.90;;;14.20;99.90;;;;;;5003159;28;20030;-65
2022/07/08 01:35:56;;;;;;;7.45;2.17;;;14.10;99.90;;;;;;5003784;28;20164;-64
2022/07/08 01:38:22;;;;;;;12.65;2.30;;;14.00;99.90;;;;;;5007426;28;20061;-65
2022/07/08 01:40:48;;;;;;;6.57;2.25;;;14.00;99.90;;;;;;5027354;28;20118;-64
2022/07/08 01:43:14;;;;;;;8.20;1.58;;;14.10;99.90;;;;;;5001623;28;20485;-65
2022/07/08 01:45:39;;;;;;;7.13;1.48;;;14.00;99.90;;;;;;5030709;28;20421;-64
2022/07/08 01:48:05;;;;;;;10.77;2.00;;;13.90;99.90;;;;;;5001125;28;20081;-64
2022/07/08 01:50:31;;;;;;;9.38;1.85;;;13.80;99.90;;;;;;4997186;28;20579;-64
2022/07/08 01:52:56;;;;;;;8.15;1.70;;;13.80;99.90;;;;;;5020973;28;20044;-64
2022/07/08 01:55:23;;;;;;;10.00;1.67;;;13.90;99.90;;;;;;4997599;28;20444;-64
2022/07/08 01:57:48;;;;;;;10.02;1.60;;;13.80;99.90;;;;;;5030680;28;20067;-64
2022/07/08 02:00:14;;;;;;;10.68;1.70;;;13.70;99.90;;;;;;4996861;28;20079;-63
2022/07/08 02:02:39;;;;;;;9.00;1.10;;;13.70;99.90;;;;;;4992379;28;20046;-63
2022/07/08 02:05:06;;;;;;;7.75;1.83;;;13.80;99.90;;;;;;4991113;28;20045;-64
2022/07/08 02:07:32;;;;;;;7.95;1.95;;;13.40;99.90;;;;;;4991025;28;20181;-64
2022/07/08 02:09:58;;;;;;;9.55;2.03;;;13.60;99.90;;;;;;5013109;28;20503;-64
2022/07/08 02:12:24;;;;;;;5.60;2.13;;;13.50;99.90;;;;;;5029111;28;20107;-64
2022/07/08 02:14:52;;;;;;;7.70;1.95;;;13.60;99.90;;;;;;4991132;28;20038;-64
2022/07/08 02:17:20;;;;;;;6.28;1.50;;;13.50;99.90;;;;;;4990985;28;20409;-64
2022/07/08 02:19:46;;;;;;;8.77;2.25;;;13.50;99.90;;;;;;5018542;28;20034;-64
2022/07/08 02:22:12;;;;;;;5.70;1.60;;;13.40;99.90;;;;;;5013487;28;20045;-64
2022/07/08 02:24:38;;;;;;;6.28;1.75;;;13.30;99.90;;;;;;5032989;28;20437;-64
2022/07/08 02:27:04;;;;;;;6.75;2.10;;;13.30;99.90;;;;;;5007191;28;20033;-64
2022/07/08 02:29:30;;;;;;;9.68;2.30;;;13.30;99.90;;;;;;5028741;28;20034;-64
2022/07/08 02:31:56;;;;;;;7.35;1.90;;;;;;;;;;4994296;28;20053;-64
2022/07/08 02:34:22;;;;;;;8.45;1.80;;;13.30;99.90;;;;;;4994493;28;20050;-64
2022/07/08 02:36:47;;;;;;;6.97;1.77;;;13.10;99.90;;;;;;4994282;28;20050;-64
2022/07/08 02:39:13;;;;;;;6.80;1.48;;;;;;;;;;5015081;28;20048;-63
2022/07/08 02:41:43;;;;;;;7.30;1.60;;;13.30;99.90;;;;;;5000886;28;20114;-64
2022/07/08 02:44:09;;;;;;;10.93;1.88;;;13.00;99.90;;;;;;4993957;28;20551;-64
2022/07/08 02:46:35;;;;;;;8.48;2.03;;;13.00;99.90;;;;;;5005032;28;20068;-63
2022/07/08 02:49:01;;;;;;;6.20;1.98;;;12.90;99.90;;;;;;5010023;28;20101;-63
2022/07/08 02:51:26;;;;;;;6.95;1.77;;;13.00;99.90;;;;;;5034809;28;20116;-63
2022/07/08 02:53:52;;;;;;;12.38;2.05;;;13.00;99.90;;;;;;5012268;28;20046;-63
2022/07/08 02:56:18;;;;;;;6.70;2.00;;;13.00;99.90;;;;;;4995174;28;20051;-63
2022/07/08 02:58:43;;;;;;;7.57;1.85;;;13.00;99.90;;;;;;5007377;28;20034;-63
2022/07/08 03:01:09;;;;;;;17.02;2.60;;;13.00;99.90;;;;;;4995224;28;20122;-63
2022/07/08 03:03:35;;;;;;;5.40;1.95;;;;;;;;;;4993951;28;20476;-63
2022/07/08 03:06:01;;;;;;;7.82;2.03;;;12.80;99.90;;;;;;4997911;28;20043;-63
2022/07/08 03:08:26;;;;;;;7.15;1.88;;;13.10;99.90;;;;;;4995440;28;20074;-64
2022/07/08 03:10:52;;;;;;;6.97;2.17;;;12.70;99.90;;;;;;5008947;28;20109;-63
2022/07/08 03:13:17;;;;;;;7.95;2.58;;;12.80;99.90;;;;;;4993662;28;20409;-63
2022/07/08 03:15:43;;;;;;;12.55;2.38;;;12.70;99.90;;;;;;5008815;28;20081;-63
2022/07/08 03:18:08;;;;;;;6.00;2.10;;;12.50;99.90;;;;;;4986285;28;20038;-63
2022/07/08 03:20:34;;;;;;;7.35;1.80;;;12.70;99.90;;;;;;5000026;28;20042;-62
2022/07/08 03:23:00;;;;;;;15.77;3.78;;;12.70;99.90;;;;;;4994974;28;20049;-62
2022/07/08 03:25:26;;;;;;;7.53;1.92;;;12.70;99.90;;;;;;4993638;28;20030;-63
2022/07/08 03:27:51;;;;;;;9.73;2.95;;;12.60;99.90;;;;;;5006650;28;20068;-63
2022/07/08 03:30:17;;;;;;;5.57;2.15;;;12.70;99.90;;;;;;4993306;28;20042;-63
2022/07/08 03:32:43;;;;;;;11.02;2.55;;;12.60;99.90;;;;;;5020239;28;20488;-62
2022/07/08 03:35:09;;;;;;;8.80;2.92;;;12.60;99.90;;;;;;5009560;28;20044;-62
2022/07/08 03:37:35;;;;;;;9.77;2.20;;;12.60;99.90;;;;;;4993475;28;20038;-62
2022/07/08 03:41:19;;;;;;;7.15;1.88;;;12.60;99.90;;;;;;5006957;28;20077;-62
2022/07/08 03:42:46;;;;;;;10.10;2.05;;;12.60;99.90;;;;;;4994126;28;20104;-63
2022/07/08 03:45:11;;;;;;;10.25;2.45;;;12.40;99.90;;;;;;5011972;28;20037;-62
2022/07/08 03:47:37;;;;;;;10.57;2.00;;;;;;;;;;5022232;28;20415;-62
2022/07/08 03:50:03;;;;;;;5.03;2.45;;;12.50;99.90;;;;;;5018303;28;20045;-64
2022/07/08 03:52:29;;;;;;;8.93;2.42;;;12.40;99.90;;;;;;5022474;28;20101;-65
2022/07/08 03:54:55;;;;;;;10.60;2.33;;;12.40;99.90;;;;;;5023895;28;20056;-64
2022/07/08 03:57:20;;;;;;;8.40;2.40;;;12.60;99.90;;;;;;5010831;28;20105;-64
2022/07/08 03:59:46;;;;;;;8.93;2.28;;;12.30;99.90;;;;;;5023800;28;20038;-65
2022/07/08 04:02:12;;;;;;;6.32;2.13;;;;;;;;;;5023516;28;20034;-64
2022/07/08 04:04:38;;;;;;;6.75;2.22;;;;;;;;;;5025247;28;20041;-65
2022/07/08 04:07:03;;;;;;;7.95;2.92;;;12.60;99.90;;;;;;5023049;28;20049;-64
2022/07/08 04:09:29;;;;;;;8.75;2.80;;;12.60;99.90;;;;;;5005763;28;20066;-63
2022/07/08 04:11:54;;;;;;;12.00;3.10;;;12.60;99.90;;;;;;5025391;28;20153;-64
2022/07/08 04:14:20;;;;;;;11.55;2.40;;;12.70;99.90;;;;;;5009568;28;20407;-63
2022/07/08 04:16:46;;;;;;;9.15;3.05;;;12.70;99.90;;;;;;5009061;28;20546;-63
2022/07/08 04:19:11;;;;;;;6.53;2.63;;;12.70;99.90;;;;;;5022316;28;20724;-64
2022/07/08 04:21:37;;;;;;;8.27;2.30;;;12.70;99.90;;;;;;5008683;28;20045;-63
2022/07/08 04:24:03;;;;;;;8.30;2.50;;;;;;;;;;5009408;28;20076;-64
2022/07/08 04:26:31;;;;;;;9.93;3.00;;;;;;;;;;5008500;28;20546;-63
2022/07/08 04:29:01;;;;;;;10.55;2.78;;;12.70;99.90;;;;;;5008950;28;20112;-63
2022/07/08 04:31:27;;;;;;;5.63;2.30;;;12.90;99.90;;;;;;5008905;28;20153;-64
2022/07/08 04:33:53;;;;;;;4.10;1.98;;;12.80;99.90;;;;;;5009013;28;20081;-64
2022/07/08 04:36:22;;;;;;;8.50;2.75;;;12.90;99.90;;;;;;5009164;28;20037;-64
2022/07/08 04:38:48;;;;;;;6.10;3.35;;;13.10;99.90;;;;;;5008502;28;20064;-64
2022/07/08 04:41:14;;;;;;;9.05;2.45;;;13.10;99.90;;;;;;5009435;28;20523;-63
2022/07/08 04:43:40;;;;;;;10.23;2.80;;;13.20;99.90;;;;;;5007837;28;20475;-64
2022/07/08 04:46:06;;;;;;;7.65;2.47;;;;;;;;;;5009600;28;20038;-63
2022/07/08 04:48:32;;;;;;;14.38;3.03;;;;;;;;;;5009588;28;20049;-64
2022/07/08 04:50:57;;;;;;;11.68;3.00;;;13.30;99.90;;;;;;5009469;28;20041;-64
2022/07/08 04:53:23;;;;;;;11.50;3.13;;;13.30;99.90;;;;;;5008479;28;20037;-63
2022/07/08 04:55:49;;;;;;;11.65;3.58;;;13.30;99.90;;;;;;5001280;28;20397;-63
2022/07/08 04:58:15;;;;;;;8.02;3.75;;;13.50;99.90;;;;;;5007231;28;20047;-63
2022/07/08 05:00:40;;;;;;;10.68;2.90;;;13.50;99.90;;;;;;5010269;28;20040;-64
2022/07/08 05:03:06;;;;;;;10.80;2.80;;;13.60;99.90;;;;;;4999271;28;20574;-63
2022/07/08 05:05:33;;;;;;;13.93;3.05;;;13.60;99.90;;;;;;5011340;28;20412;-64
2022/07/08 05:07:59;;;;;;;9.43;3.88;;;13.70;99.90;;;;;;5011455;28;20056;-64
2022/07/08 05:10:25;;;;;;;9.70;3.15;;;13.70;99.90;;;;;;4994582;28;20034;-64
2022/07/08 05:12:51;;;;;;;19.50;3.17;;;13.70;99.90;;;;;;4993254;28;20503;-64
2022/07/08 05:15:17;;;;;;;7.43;2.70;;;13.80;99.90;;;;;;5006422;28;20042;-64
2022/07/08 05:17:42;;;;;;;10.95;3.17;;;13.90;99.90;;;;;;5010023;28;20073;-64
2022/07/08 05:20:09;;;;;;;11.95;3.45;;;13.70;99.90;;;;;;5009864;28;20038;-62
2022/07/08 05:22:36;;;;;;;7.03;2.45;;;13.90;99.90;;;;;;5010174;28;20470;-60
2022/07/08 05:25:06;;;;;;;8.90;2.83;;;13.90;99.90;;;;;;5010473;28;20432;-62
2022/07/08 05:27:31;;;;;;;9.30;3.08;;;14.00;99.90;;;;;;5010680;28;20049;-63
2022/07/08 05:29:57;;;;;;;11.75;2.78;;;14.00;99.90;;;;;;5010822;28;20385;-62
2022/07/08 05:32:22;;;;;;;11.55;2.67;;;14.00;99.90;;;;;;5011384;28;20030;-62
2022/07/08 05:34:48;;;;;;;12.38;2.92;;;14.10;99.90;;;;;;5011330;28;20030;-62
2022/07/08 05:37:14;;;;;;;10.20;2.50;;;14.20;99.90;;;;;;5010666;28;20034;-62
2022/07/08 05:39:40;;;;;;;8.63;2.45;;;14.50;99.90;;;;;;5010820;28;20104;-62
2022/07/08 05:42:10;;;;;;;6.18;2.42;;;14.60;99.90;;;;;;5010957;28;20052;-62
2022/07/08 05:44:36;;;;;;;10.27;2.67;;;14.70;99.90;;;;;;5011202;28;20447;-62
2022/07/08 05:47:09;;;;;;;10.95;2.10;;;15.00;99.90;;;;;;5012054;28;20092;-62
2022/07/08 05:49:35;;;;;;;12.02;3.92;;;15.10;99.90;;;;;;5012508;28;20045;-62
2022/07/08 05:52:05;;;;;;;11.15;2.55;;;15.40;99.90;;;;;;5010594;28;20393;-62
2022/07/08 05:54:31;;;;;;;11.10;2.30;;;15.40;99.90;;;;;;5012199;28;20042;-62
2022/07/08 05:56:57;;;;;;;12.32;2.30;;;15.60;99.90;;;;;;5010835;28;20439;-62
2022/07/08 05:59:23;;;;;;;10.40;2.35;;;15.60;99.90;;;;;;5014588;28;20451;-62
2022/07/08 06:01:49;;;;;;;6.85;1.98;;;15.80;99.90;;;;;;5015596;28;20101;-63
2022/07/08 06:04:14;;;;;;;9.48;3.08;;;15.80;99.90;;;;;;5015921;28;20046;-62
2022/07/08 06:06:40;;;;;;;5.65;1.95;;;16.20;99.90;;;;;;5015693;28;20092;-63
2022/07/08 06:09:05;;;;;;;12.70;2.45;;;16.40;99.90;;;;;;5014748;28;20042;-62
2022/07/08 06:11:31;;;;;;;8.77;2.15;;;16.40;99.90;;;;;;5016060;28;20065;-63
2022/07/08 06:13:56;;;;;;;12.30;2.40;;;16.20;99.90;;;;;;5014831;28;20484;-62
2022/07/08 06:16:22;;;;;;;12.15;2.80;;;16.40;99.90;;;;;;5015755;28;20492;-63
2022/07/08 06:18:48;;;;;;;9.77;2.85;;;16.40;99.90;;;;;;5015436;28;20069;-63
2022/07/08 06:21:13;;;;;;;8.85;2.08;;;16.30;99.90;;;;;;5014378;28;20042;-62
2022/07/08 06:23:39;;;;;;;12.75;2.38;;;16.00;99.90;;;;;;5015379;28;20037;-62
2022/07/08 06:26:05;;;;;;;8.98;2.22;;;16.30;99.90;;;;;;5015775;28;20182;-62
2022/07/08 06:28:30;;;;;;;6.95;1.95;;;16.60;99.90;;;;;;5011884;28;20409;-62
2022/07/08 06:30:56;;;;;;;10.80;1.98;;;16.40;99.90;;;;;;5013667;28;20041;-62
2022/07/08 06:33:22;;;;;;;13.73;3.67;;;16.40;99.90;;;;;;5015826;28;20088;-63
2022/07/08 06:35:47;;;;;;;10.40;2.15;;;16.50;99.90;;;;;;5015236;28;20026;-63
2022/07/08 06:38:13;;;;;;;10.48;2.13;;;16.60;99.90;;;;;;5014824;28;20121;-62
2022/07/08 06:40:38;;;;;;;8.75;2.00;;;16.80;99.90;;;;;;5013104;28;20042;-63
2022/07/08 06:43:04;;;;;;;13.75;2.20;;;16.60;99.90;;;;;;5015482;28;20095;-63
2022/07/08 06:45:32;;;;;;;11.10;2.25;;;16.80;99.90;;;;;;5015154;28;20483;-63
2022/07/08 06:48:01;;;;;;;15.05;1.95;;;16.70;99.90;;;;;;5014635;28;20408;-63
2022/07/08 06:50:26;;;;;;;13.40;2.22;;;16.90;99.90;;;;;;5015077;28;20068;-63
2022/07/08 06:52:52;;;;;;;12.20;1.88;;;16.90;99.90;;;;;;5015510;28;20117;-62
2022/07/08 06:55:17;;;;;;;9.02;1.83;;;16.70;99.90;;;;;;5015396;28;20473;-62
2022/07/08 06:57:43;;;;;;;13.35;2.22;;;16.90;99.90;;;;;;5014866;28;20155;-62
2022/07/08 07:00:10;;;;;;;17.15;2.20;;;16.70;99.90;;;;;;5014936;28;20044;-62
2022/07/08 07:02:36;;;;;;;10.52;2.22;;;16.80;99.90;;;;;;5013410;28;20038;-63
2022/07/08 07:05:01;;;;;;;11.60;2.13;;;16.90;99.90;;;;;;5013569;28;20441;-62
2022/07/08 07:07:27;;;;;;;12.63;2.90;;;16.90;99.90;;;;;;5014552;28;20042;-62
2022/07/08 07:09:53;;;;;;;9.32;2.20;;;17.00;99.90;;;;;;5011967;28;20030;-63
2022/07/08 07:12:19;;;;;;;7.72;1.83;;;16.90;99.90;;;;;;5012354;28;20054;-63
2022/07/08 07:14:44;;;;;;;7.90;1.98;;;17.10;99.90;;;;;;5026493;28;20408;-62
2022/07/08 07:17:10;;;;;;;12.90;2.15;;;17.00;99.90;;;;;;5012140;28;20073;-63
2022/07/08 07:19:36;;;;;;;9.85;1.63;;;17.40;99.90;;;;;;5013825;28;20030;-63
2022/07/08 07:22:02;;;;;;;10.55;2.60;;;17.20;99.90;;;;;;5012018;28;20050;-63
2022/07/08 07:24:28;;;;;;;12.82;3.28;;;17.50;99.90;;;;;;5013626;28;20037;-63
2022/07/08 07:26:53;;;;;;;8.55;1.70;;;17.50;99.90;;;;;;5013139;28;20042;-62
2022/07/08 07:29:19;;;;;;;10.23;1.50;;;17.80;99.90;;;;;;5010118;28;20038;-63
2022/07/08 07:31:45;;;;;;;11.57;2.08;;;17.60;99.90;;;;;;5014167;28;20042;-63
2022/07/08 07:34:10;;;;;;;6.55;1.65;;;17.90;99.90;;;;;;5013017;28;20060;-63
2022/07/08 07:36:36;;;;;;;7.65;1.80;;;17.80;99.90;;;;;;5014055;28;20099;-63
2022/07/08 07:39:02;;;;;;;10.73;1.90;;;17.80;99.90;;;;;;5013969;28;20058;-63
2022/07/08 07:41:27;;;;;;;7.85;2.53;;;17.90;99.90;;;;;;5014237;28;20034;-63
2022/07/08 07:43:53;;;;;;;7.95;1.58;;;17.80;99.90;;;;;;5014441;28;20056;-62
2022/07/08 07:46:18;;;;;;;12.38;2.33;;;18.00;99.90;;;;;;5013960;28;20488;-63
2022/07/08 07:48:45;;;;;;;4.90;2.17;;;17.80;99.90;;;;;;5012591;28;20385;-63
2022/07/08 07:51:11;;;;;;;11.25;2.08;;;17.60;99.90;;;;;;5013958;28;20053;-63
2022/07/08 07:53:36;;;;;;;10.02;2.03;;;17.90;99.90;;;;;;5013861;28;20046;-62
2022/07/08 07:56:02;;;;;;;12.38;2.95;;;17.90;99.90;;;;;;5014111;28;20042;-63
2022/07/08 07:58:28;;;;;;;20.17;2.95;;;17.80;99.90;;;;;;5013706;28;20034;-63
2022/07/08 08:00:53;;;;;;;10.95;2.47;;;18.00;99.90;;;;;;5013612;28;20037;-63
2022/07/08 08:03:19;;;;;;;10.57;2.22;;;17.90;99.90;;;;;;5012781;28;20120;-62
2022/07/08 08:05:44;;;;;;;4.57;1.75;;;17.90;99.90;;;;;;5013782;28;20496;-62
2022/07/08 08:08:10;;;;;;;11.35;2.50;;;17.70;99.90;;;;;;5013458;28;20040;-62
2022/07/08 08:10:36;;;;;;;8.00;1.67;;;17.70;99.90;;;;;;5013146;28;20046;-62
2022/07/08 08:13:02;;;;;;;8.07;1.35;;;17.60;99.90;;;;;;5012949;28;20061;-62
2022/07/08 08:15:29;;;;;;;8.07;1.92;;;17.90;99.90;;;;;;5013247;28;20042;-62
2022/07/08 08:17:59;;;;;;;10.98;1.85;;;17.80;99.90;;;;;;5011897;28;20042;-63
2022/07/08 08:20:28;;;;;;;8.10;1.63;;;18.00;99.90;;;;;;5013556;28;20507;-63
2022/07/08 08:22:54;;;;;;;7.88;1.70;;;18.00;99.90;;;;;;5011846;28;20044;-62
2022/07/08 08:25:20;;;;;;;9.60;2.35;;;17.90;99.90;;;;;;5013435;28;20117;-62
2022/07/08 08:27:46;;;;;;;7.97;1.55;;;18.10;99.90;;;;;;5013154;28;20056;-62
2022/07/08 08:30:12;;;;;;;11.90;2.08;;;18.20;99.90;;;;;;4998562;28;20547;-62
2022/07/08 08:32:38;;;;;;;7.43;1.60;;;18.00;99.90;;;;;;5012042;28;20041;-62
2022/07/08 08:35:05;;;;;;;7.40;1.40;;;18.20;99.90;;;;;;5011722;28;20117;-63
2022/07/08 08:37:30;;;;;;;12.48;2.00;;;18.40;99.90;;;;;;5012910;28;20049;-63
2022/07/08 08:39:56;;;;;;;10.43;3.22;;;18.50;99.90;;;;;;5012062;28;20054;-62
2022/07/08 08:42:22;;;;;;;11.43;2.45;;;18.70;99.90;;;;;;5013489;28;20088;-62
2022/07/08 08:44:49;;;;;;;7.70;1.73;;;18.50;99.90;;;;;;5013381;28;20042;-63
2022/07/08 08:47:16;;;;;;;7.90;2.00;;;18.50;99.90;;;;;;5013171;28;20063;-63
2022/07/08 08:49:43;;;;;;;6.68;1.77;;;18.60;99.90;;;;;;5013136;28;20033;-63
2022/07/08 08:52:15;;;;;;;9.68;1.60;;;18.60;99.90;;;;;;5010166;28;20439;-62
2022/07/08 08:54:42;;;;;;;9.93;1.50;;;18.90;99.90;;;;;;5005140;28;20472;-63
2022/07/08 08:57:07;;;;;;;8.82;1.95;;;18.70;99.90;;;;;;5011558;28;20038;-62
2022/07/08 08:59:34;;;;;;;6.82;1.42;;;18.50;99.90;;;;;;5012752;28;20049;-64
2022/07/08 09:02:04;;;;;;;9.68;1.90;;;16.50;99.90;;;;;;5012731;28;20085;-65
2022/07/08 09:04:33;;;;;;;8.00;1.52;;;18.40;99.90;;;;;;5011262;28;20141;-65
2022/07/08 09:07:00;;;;;;;4.97;1.38;;;18.80;99.90;;;;;;5011610;28;20049;-65
2022/07/08 09:09:26;;;;;;;7.53;1.67;;;18.90;99.90;;;;;;5011282;28;20108;-65
2022/07/08 09:11:51;;;;;;;6.95;1.58;;;18.80;99.90;;;;;;5011288;28;20546;-65
2022/07/08 09:14:20;;;;;;;5.38;1.45;;;18.70;99.90;;;;;;5011568;28;20431;-65
2022/07/08 09:17:12;;;;;;;8.07;1.98;;;18.80;99.90;;;;;;5012521;28;20050;-66
2022/07/08 09:19:41;;;;;;;6.75;1.60;;;18.70;99.90;;;;;;5011519;28;20186;-65
2022/07/08 09:22:08;;;;;;;7.72;1.65;;;19.20;99.90;;;;;;5011303;28;20045;-66
2022/07/08 09:24:34;;;;;;;7.78;1.40;;;20.10;99.90;;;;;;5012695;28;20080;-65
2022/07/08 09:27:18;;;;;;;5.15;1.42;;;19.00;99.90;;;;;;5011248;28;20046;-66
2022/07/08 09:29:59;;;;;;;5.63;1.42;;;18.90;99.90;;;;;;5011686;28;20384;-65
2022/07/08 09:32:25;;;;;;;4.03;1.30;;;19.30;99.90;;;;;;5011900;28;20061;-65
2022/07/08 09:34:50;;;;;;;5.90;1.52;;;19.20;99.90;;;;;;5011882;28;20087;-65
2022/07/08 09:37:18;;;;;;;6.05;1.45;;;19.40;99.90;;;;;;5012173;28;20042;-66
2022/07/08 09:39:44;;;;;;;6.82;2.08;;;19.40;99.90;;;;;;5010904;28;20500;-66
2022/07/08 09:42:10;;;;;;;6.32;1.40;;;19.40;99.90;;;;;;5011068;28;20503;-66
2022/07/08 09:44:37;;;;;;;4.78;1.40;;;19.40;99.90;;;;;;5012685;28;20041;-66
2022/07/08 09:47:13;;;;;;;3.97;1.45;;;19.50;99.90;;;;;;5012176;28;20046;-65
2022/07/08 09:49:43;;;;;;;7.35;1.30;;;19.60;99.90;;;;;;5004745;28;20050;-66
2022/07/08 09:52:10;;;;;;;4.57;1.45;;;19.70;99.90;;;;;;5010959;28;20052;-66
2022/07/08 09:54:36;;;;;;;7.15;1.50;;;19.80;99.90;;;;;;5012222;28;20566;-66
2022/07/08 09:57:05;;;;;;;11.70;1.70;;;20.00;99.90;;;;;;5010933;28;20041;-66
2022/07/08 09:59:33;;;;;;;6.07;1.33;;;20.00;99.90;;;;;;5010892;28;20076;-65
2022/07/08 10:01:59;;;;;;;8.10;1.98;;;20.00;99.90;;;;;;5011908;28;20046;-66
2022/07/08 10:04:26;;;;;;;10.15;2.47;;;20.10;99.90;;;;;;5011130;28;20121;-66
2022/07/08 10:06:53;;;;;;;6.93;1.63;;;20.00;99.90;;;;;;5010876;28;20073;-65
2022/07/08 10:09:19;;;;;;;7.63;1.40;;;19.80;99.90;;;;;;5012161;28;20061;-65
2022/07/08 10:11:46;;;;;;;6.07;1.38;;;19.70;99.90;;;;;;5010819;28;20518;-65
2022/07/08 10:14:12;;;;;;;8.85;1.90;;;19.70;99.90;;;;;;5012127;28;20085;-66
2022/07/08 10:16:39;;;;;;;8.48;1.25;;;19.40;99.90;;;;;;5012077;28;20073;-66
2022/07/08 10:19:27;;;;;;;11.75;1.83;;;19.70;99.90;;;;;;5010799;28;20046;-66
2022/07/08 10:21:56;;;;;;;8.55;1.90;;;19.50;99.90;;;;;;5018968;28;20450;-65
2022/07/08 10:24:27;;;;;;;7.15;1.25;;;19.60;99.90;;;;;;5012176;28;20439;-65
2022/07/08 10:26:57;;;;;;;7.90;1.90;;;19.60;99.90;;;;;;5010537;28;20056;-65
2022/07/08 10:29:29;;;;;;;5.38;1.25;;;19.50;99.90;;;;;;5025383;28;20578;-65
2022/07/08 10:31:55;;;;;;;5.88;1.38;;;19.70;99.90;;;;;;5003982;28;20036;-66
2022/07/08 10:34:28;;;;;;;4.18;1.63;;;19.40;99.90;;;;;;5007615;28;20548;-66
2022/07/08 10:36:53;;;;;;;7.32;2.08;;;19.50;99.90;;;;;;5018732;28;20034;-66
2022/07/08 10:39:30;;;;;;;8.13;1.35;;;19.30;99.90;;;;;;4992046;28;20097;-65
2022/07/08 10:42:01;;;;;;;3.78;1.02;;;19.70;99.90;;;;;;5012081;28;20059;-66
2022/07/08 10:44:48;;;;;;;6.30;1.30;;;19.70;99.90;;;;;;5009912;28;20045;-66
2022/07/08 10:47:22;;;;;;;12.15;3.15;;;19.90;99.90;;;;;;5018616;28;20072;-66
2022/07/08 10:49:49;;;;;;;6.53;1.33;;;20.10;99.90;;;;;;5006839;28;20129;-66
2022/07/08 10:52:16;;;;;;;10.70;1.67;;;20.10;99.90;;;;;;5014007;28;20438;-66
2022/07/08 10:54:42;;;;;;;5.05;1.38;;;20.00;99.90;;;;;;5002698;28;20378;-66
2022/07/08 10:57:16;;;;;;;6.55;1.40;;;20.40;99.90;;;;;;5029639;28;20056;-66
2022/07/08 10:59:47;;;;;;;6.80;2.63;;;20.30;99.90;;;;;;5012999;28;20439;-65
2022/07/08 11:02:16;;;;;;;8.35;1.48;;;20.20;99.90;;;;;;5001442;28;20037;-66
2022/07/08 11:04:53;;;;;;;7.25;1.95;;;20.60;99.90;;;;;;5014485;28;20045;-65
2022/07/08 11:07:28;;;;;;;5.38;1.25;;;20.30;99.90;;;;;;5030860;28;20042;-66
2022/07/08 11:09:58;;;;;;;4.50;1.10;;;20.10;99.90;;;;;;5033682;28;20128;-66
2022/07/08 11:12:34;;;;;;;6.10;1.63;;;20.50;99.90;;;;;;5027283;28;20392;-65
2022/07/08 11:15:01;;;;;;;7.63;2.25;;;20.60;99.90;;;;;;4995413;28;20038;-65
2022/07/08 11:17:31;;;;;;;5.03;1.15;;;21.90;99.90;;;;;;4998339;28;20400;-66
2022/07/08 11:19:59;;;;;;;3.58;1.20;;;20.70;99.90;;;;;;5003932;28;20042;-66
2022/07/08 11:22:26;;;;;;;6.43;1.45;;;20.90;99.90;;;;;;4999430;28;20034;-66
2022/07/08 11:24:55;;;;;;;5.22;1.52;;;21.00;99.90;;;;;;5018317;28;20038;-65
2022/07/08 11:27:29;;;;;;;3.67;1.33;;;20.80;99.90;;;;;;5011988;28;20555;-65
2022/07/08 11:29:55;;;;;;;5.57;1.58;;;21.00;99.90;;;;;;5000944;28;20381;-66
2022/07/08 11:32:23;;;;;;;7.70;1.60;;;21.30;99.90;;;;;;5014872;28;20076;-66
2022/07/08 11:34:50;;;;;;;5.45;1.35;;;21.10;99.90;;;;;;5030551;28;20076;-66
2022/07/08 11:37:16;;;;;;;4.47;1.40;;;20.90;99.90;;;;;;5017504;28;20113;-66
2022/07/08 11:39:43;;;;;;;6.35;1.60;;;21.10;99.90;;;;;;5020908;28;20057;-65
2022/07/08 11:42:09;;;;;;;6.47;0.90;;;21.20;99.90;;;;;;5001341;28;20042;-66
2022/07/08 11:44:35;;;;;;;8.18;1.85;;;20.80;99.90;;;;;;5002061;28;20092;-66
2022/07/08 11:47:01;;;;;;;5.00;1.00;;;20.80;99.90;;;;;;5013308;28;20051;-66
2022/07/08 11:49:27;;;;;;;6.82;1.45;;;20.80;99.90;;;;;;5012919;28;20117;-66
2022/07/08 11:51:57;;;;;;;4.15;1.20;;;20.80;99.90;;;;;;5021983;28;20042;-65
2022/07/08 11:54:24;;;;;;;5.90;1.25;;;20.70;99.90;;;;;;4993516;28;20049;-66
2022/07/08 11:56:57;;;;;;;8.13;1.38;;;20.80;99.90;;;;;;5007630;28;20081;-66
2022/07/08 11:59:30;;;;;;;6.70;1.65;;;21.40;99.90;;;;;;4993293;28;20049;-66
2022/07/08 12:01:58;;;;;;;6.43;1.75;;;21.30;99.90;;;;;;4997307;28;20034;-66
2022/07/08 12:04:24;;;;;;;9.70;2.17;;;21.20;99.90;;;;;;5034017;28;20038;-66
2022/07/08 12:07:00;;;;;;;10.23;2.10;;;21.80;99.90;;;;;;5018590;28;20041;-65
2022/07/08 12:09:27;;;;;;;9.82;2.00;;;21.30;99.90;;;;;;5021320;28;20068;-66
2022/07/08 12:11:55;;;;;;;9.57;2.10;;;21.50;99.90;;;;;;5006096;28;20038;-66
2022/07/08 12:14:22;;;;;;;6.60;1.58;;;21.60;99.90;;;;;;5022111;28;20462;-66
2022/07/08 12:16:52;;;;;;;7.78;1.70;;;21.80;99.90;;;;;;4994160;28;20043;-66
2022/07/08 12:19:33;;;;;;;9.63;2.33;;;21.80;99.90;;;;;;5020297;28;20042;-66
2022/07/08 12:22:00;;;;;;;7.38;2.15;;;21.70;99.90;;;;;;5017630;28;20038;-66
2022/07/08 12:24:46;;;;;;;8.90;2.50;;;21.70;99.90;;;;;;5024066;28;20456;-66
2022/07/08 12:27:19;;;;;;;5.85;2.38;;;21.80;99.90;;;;;;5005549;28;20496;-66
2022/07/08 12:29:44;;;;;;;8.85;2.42;;;21.80;99.90;;;;;;4995863;28;20049;-66
2022/07/08 12:32:11;;;;;;;9.68;2.42;;;21.90;99.90;;;;;;5010627;28;20041;-66
2022/07/08 12:34:37;;;;;;;7.13;2.25;;;22.00;99.90;;;;;;5004460;28;20393;-66
2022/07/08 12:37:20;;;;;;;8.95;2.50;;;21.80;99.90;;;;;;5005472;28;20076;-66
2022/07/08 12:39:46;;;;;;;9.43;2.50;;;21.70;99.90;;;;;;5002056;28;20137;-66
2022/07/08 12:42:12;;;;;;;11.25;2.38;;;21.70;99.90;;;;;;4993480;28;20066;-65
2022/07/08 12:44:40;;;;;;;9.00;2.00;;;21.60;99.90;;;;;;4992409;28;20497;-66
2022/07/08 12:47:10;;;;;;;6.47;1.88;;;21.60;99.90;;;;;;5007209;28;20081;-66